sensor_id;sensor_type;location;lat;lon;timestamp;pressure;altitude;pressure_sealevel;temperature;humidity
75933;BME280;64803;52.356;5.310;2023-02-21T00:00:59;102357.66;;;8.50;100.00
75933;BME280;64803;52.356;5.310;2023-02-21T00:03:43;102356.81;;;8.49;100.00
75933;BME280;64803;52.356;5.310;2023-02-21T00:06:28;102349.78;;;8.48;100.00
75933;BME280;64803;52.356;5.310;2023-02-21T00:09:13;102362.28;;;8.48;100.00
75933;BME280;64803;52.356;5.310;2023-02-21T00:11:57;102361.34;;;8.49;100.00
75933;BME280;64803;52.356;5.310;2023-02-21T00:14:41;102356.81;;;8.49;100.00
75933;BME280;64803;52.356;5.310;2023-02-21T00:17:26;102351.59;;;8.48;100.00
75933;BME280;64803;52.356;5.310;2023-02-21T00:20:10;102350.03;;;8.45;100.00
75933;BME280;64803;52.356;5.310;2023-02-21T00:22:55;102340.88;;;8.48;100.00
75933;BME280;64803;52.356;5.310;2023-02-21T00:25:39;102355.25;;;8.47;100.00
75933;BME280;64803;52.356;5.310;2023-02-21T00:28:24;102355.84;;;8.50;100.00
75933;BME280;64803;52.356;5.310;2023-02-21T00:31:08;102355.00;;;8.50;100.00
75933;BME280;64803;52.356;5.310;2023-02-21T00:33:53;102356.69;;;8.51;100.00
75933;BME280;64803;52.356;5.310;2023-02-21T00:36:39;102361.06;;;8.52;100.00
75933;BME280;64803;52.356;5.310;2023-02-21T00:39:24;102359.34;;;8.51;100.00
75933;BME280;64803;52.356;5.310;2023-02-21T00:42:08;102336.28;;;8.39;100.00
75933;BME280;64803;52.356;5.310;2023-02-21T00:44:53;102360.09;;;8.53;100.00
75933;BME280;64803;52.356;5.310;2023-02-21T00:47:37;102359.94;;;8.54;100.00
75933;BME280;64803;52.356;5.310;2023-02-21T00:50:22;102355.44;;;8.55;100.00
75933;BME280;64803;52.356;5.310;2023-02-21T00:53:07;102341.34;;;8.53;100.00
75933;BME280;64803;52.356;5.310;2023-02-21T00:55:52;102326.06;;;8.44;100.00
75933;BME280;64803;52.356;5.310;2023-02-21T00:58:36;102344.00;;;8.53;100.00
75933;BME280;64803;52.356;5.310;2023-02-21T01:01:21;102348.28;;;8.55;100.00
75933;BME280;64803;52.356;5.310;2023-02-21T01:04:05;102346.19;;;8.59;100.00
75933;BME280;64803;52.356;5.310;2023-02-21T01:06:50;102344.09;;;8.62;100.00
75933;BME280;64803;52.356;5.310;2023-02-21T01:09:34;102340.31;;;8.65;100.00
75933;BME280;64803;52.356;5.310;2023-02-21T01:12:19;102338.34;;;8.67;100.00
75933;BME280;64803;52.356;5.310;2023-02-21T01:15:04;102332.88;;;8.68;100.00
75933;BME280;64803;52.356;5.310;2023-02-21T01:17:49;102329.59;;;8.65;100.00
75933;BME280;64803;52.356;5.310;2023-02-21T01:20:34;102329.13;;;8.60;100.00
75933;BME280;64803;52.356;5.310;2023-02-21T01:23:18;102329.41;;;8.57;100.00
75933;BME280;64803;52.356;5.310;2023-02-21T01:26:03;102332.94;;;8.57;100.00
75933;BME280;64803;52.356;5.310;2023-02-21T01:28:48;102335.84;;;8.54;100.00
75933;BME280;64803;52.356;5.310;2023-02-21T01:31:32;102332.47;;;8.52;100.00
75933;BME280;64803;52.356;5.310;2023-02-21T01:34:17;102336.97;;;8.52;100.00
75933;BME280;64803;52.356;5.310;2023-02-21T01:37:01;102332.47;;;8.52;100.00
75933;BME280;64803;52.356;5.310;2023-02-21T01:39:48;102325.53;;;8.50;100.00
75933;BME280;64803;52.356;5.310;2023-02-21T01:42:33;102327.94;;;8.53;100.00
75933;BME280;64803;52.356;5.310;2023-02-21T01:48:08;102309.28;;;8.42;100.00
75933;BME280;64803;52.356;5.310;2023-02-21T01:50:55;102319.19;;;8.51;100.00
75933;BME280;64803;52.356;5.310;2023-02-21T01:53:41;102327.72;;;8.56;100.00
75933;BME280;64803;52.356;5.310;2023-02-21T01:56:28;102322.59;;;8.53;100.00
75933;BME280;64803;52.356;5.310;2023-02-21T01:59:15;102319.19;;;8.51;100.00
75933;BME280;64803;52.356;5.310;2023-02-21T02:02:03;102312.88;;;8.52;100.00
75933;BME280;64803;52.356;5.310;2023-02-21T02:04:50;102274.53;;;8.31;100.00
75933;BME280;64803;52.356;5.310;2023-02-21T02:07:36;102307.66;;;8.50;100.00
75933;BME280;64803;52.356;5.310;2023-02-21T02:10:21;102304.84;;;8.52;100.00
75933;BME280;64803;52.356;5.310;2023-02-21T02:16:07;102311.06;;;8.52;100.00
75933;BME280;64803;52.356;5.310;2023-02-21T02:29:41;102302.94;;;8.63;100.00
75933;BME280;64803;52.356;5.310;2023-02-21T02:43:05;102302.44;;;8.69;100.00
75933;BME280;64803;52.356;5.310;2023-02-21T02:46:04;102304.25;;;8.69;100.00
75933;BME280;64803;52.356;5.310;2023-02-21T02:48:52;102306.81;;;8.70;100.00
75933;BME280;64803;52.356;5.310;2023-02-21T02:51:20;102306.66;;;8.72;100.00
75933;BME280;64803;52.356;5.310;2023-02-21T02:53:47;102300.63;;;8.70;100.00
75933;BME280;64803;52.356;5.310;2023-02-21T02:56:14;102246.84;;;8.41;100.00
75933;BME280;64803;52.356;5.310;2023-02-21T02:58:47;102301.31;;;8.72;100.00
75933;BME280;64803;52.356;5.310;2023-02-21T03:01:19;102298.53;;;8.73;100.00
75933;BME280;64803;52.356;5.310;2023-02-21T03:06:59;102295.00;;;8.73;100.00
75933;BME280;64803;52.356;5.310;2023-02-21T03:12:19;102296.69;;;8.74;100.00
75933;BME280;64803;52.356;5.310;2023-02-21T03:15:08;102268.81;;;8.56;100.00
75933;BME280;64803;52.356;5.310;2023-02-21T03:17:41;102295.72;;;8.75;100.00
75933;BME280;64803;52.356;5.310;2023-02-21T03:20:10;102304.47;;;8.77;100.00
75933;BME280;64803;52.356;5.310;2023-02-21T03:22:38;102301.66;;;8.78;100.00
75933;BME280;64803;52.356;5.310;2023-02-21T03:25:05;102301.81;;;8.77;100.00
75933;BME280;64803;52.356;5.310;2023-02-21T03:27:34;102298.84;;;8.80;100.00
75933;BME280;64803;52.356;5.310;2023-02-21T03:30:22;102295.44;;;8.78;100.00
75933;BME280;64803;52.356;5.310;2023-02-21T03:32:51;102291.19;;;8.75;100.00
75933;BME280;64803;52.356;5.310;2023-02-21T03:35:20;102290.38;;;8.75;100.00
75933;BME280;64803;52.356;5.310;2023-02-21T03:37:50;102290.38;;;8.75;100.00
75933;BME280;64803;52.356;5.310;2023-02-21T03:40:25;102289.38;;;8.76;100.00
75933;BME280;64803;52.356;5.310;2023-02-21T03:42:53;102280.94;;;8.80;100.00
75933;BME280;64803;52.356;5.310;2023-02-21T03:45:20;102284.47;;;8.81;100.00
75933;BME280;64803;52.356;5.310;2023-02-21T03:48:19;102286.19;;;8.82;100.00
75933;BME280;64803;52.356;5.310;2023-02-21T03:50:45;102286.41;;;8.79;100.00
75933;BME280;64803;52.356;5.310;2023-02-21T03:53:12;102278.66;;;8.76;100.00
75933;BME280;64803;52.356;5.310;2023-02-21T03:55:41;102278.38;;;8.79;100.00
75933;BME280;64803;52.356;5.310;2023-02-21T03:58:13;102275.97;;;8.76;100.00
75933;BME280;64803;52.356;5.310;2023-02-21T04:00:40;102275.25;;;8.74;100.00
75933;BME280;64803;52.356;5.310;2023-02-21T04:03:06;102276.97;;;8.75;100.00
75933;BME280;64803;52.356;5.310;2023-02-21T04:05:38;102271.34;;;8.78;100.00
75933;BME280;64803;52.356;5.310;2023-02-21T04:08:06;102278.53;;;8.77;100.00
75933;BME280;64803;52.356;5.310;2023-02-21T04:10:32;102283.06;;;8.77;100.00
75933;BME280;64803;52.356;5.310;2023-02-21T04:12:58;102274.28;;;8.75;100.00
75933;BME280;64803;52.356;5.310;2023-02-21T04:15:25;102277.94;;;8.74;100.00
75933;BME280;64803;52.356;5.310;2023-02-21T04:17:51;102281.03;;;8.69;100.00
75933;BME280;64803;52.356;5.310;2023-02-21T04:20:17;102285.53;;;8.69;100.00
75933;BME280;64803;52.356;5.310;2023-02-21T04:22:51;102282.84;;;8.69;100.00
75933;BME280;64803;52.356;5.310;2023-02-21T04:25:18;102288.19;;;8.69;100.00
75933;BME280;64803;52.356;5.310;2023-02-21T04:27:49;102297.69;;;8.73;100.00
75933;BME280;64803;52.356;5.310;2023-02-21T04:30:15;102302.19;;;8.72;100.00
75933;BME280;64803;52.356;5.310;2023-02-21T04:32:41;102293.56;;;8.69;100.00
75933;BME280;64803;52.356;5.310;2023-02-21T04:35:12;102297.69;;;8.73;100.00
75933;BME280;64803;52.356;5.310;2023-02-21T04:37:38;102295.13;;;8.71;100.00
75933;BME280;64803;52.356;5.310;2023-02-21T04:40:04;102297.69;;;8.73;100.00
75933;BME280;64803;52.356;5.310;2023-02-21T04:42:33;102293.56;;;8.69;100.00
75933;BME280;64803;52.356;5.310;2023-02-21T04:44:59;102289.19;;;8.68;100.00
75933;BME280;64803;52.356;5.310;2023-02-21T04:47:26;102296.50;;;8.66;100.00
75933;BME280;64803;52.356;5.310;2023-02-21T04:49:52;102296.63;;;8.64;100.00
75933;BME280;64803;52.356;5.310;2023-02-21T04:52:18;102301.84;;;8.66;100.00
75933;BME280;64803;52.356;5.310;2023-02-21T04:54:47;102296.50;;;8.66;100.00
75933;BME280;64803;52.356;5.310;2023-02-21T04:57:14;102289.44;;;8.65;100.00
75933;BME280;64803;52.356;5.310;2023-02-21T04:59:41;102294.09;;;8.63;100.00
75933;BME280;64803;52.356;5.310;2023-02-21T05:02:08;102286.06;;;8.63;100.00
75933;BME280;64803;52.356;5.310;2023-02-21T05:04:35;102299.44;;;8.63;100.00
75933;BME280;64803;52.356;5.310;2023-02-21T05:07:02;102284.34;;;8.62;100.00
75933;BME280;64803;52.356;5.310;2023-02-21T05:09:28;102287.75;;;8.64;100.00
75933;BME280;64803;52.356;5.310;2023-02-21T05:11:54;102286.06;;;8.63;100.00
75933;BME280;64803;52.356;5.310;2023-02-21T05:14:20;102284.47;;;8.60;100.00
75933;BME280;64803;52.356;5.310;2023-02-21T05:16:46;102297.00;;;8.60;100.00
75933;BME280;64803;52.356;5.310;2023-02-21T05:19:16;102295.91;;;8.62;100.00
75933;BME280;64803;52.356;5.310;2023-02-21T05:21:56;102276.50;;;8.49;100.00
75933;BME280;64803;52.356;5.310;2023-02-21T05:24:24;102304.06;;;8.61;100.00
75933;BME280;64803;52.356;5.310;2023-02-21T05:26:50;102298.97;;;8.58;100.00
75933;BME280;64803;52.356;5.310;2023-02-21T05:29:17;102301.78;;;8.56;100.00
75933;BME280;64803;52.356;5.310;2023-02-21T05:31:43;102306.03;;;8.59;100.00
75933;BME280;64803;52.356;5.310;2023-02-21T05:34:10;102302.38;;;8.60;100.00
75933;BME280;64803;52.356;5.310;2023-02-21T05:36:36;102305.75;;;8.62;100.00
75933;BME280;64803;52.356;5.310;2023-02-21T05:39:03;102302.13;;;8.63;100.00
75933;BME280;64803;52.356;5.310;2023-02-21T05:41:30;102304.81;;;8.63;100.00
75933;BME280;64803;52.356;5.310;2023-02-21T05:43:56;102259.66;;;8.38;100.00
75933;BME280;64803;52.356;5.310;2023-02-21T05:46:27;102304.81;;;8.63;100.00
75933;BME280;64803;52.356;5.310;2023-02-21T05:48:54;102299.81;;;8.58;100.00
75933;BME280;64803;52.356;5.310;2023-02-21T05:51:21;102308.56;;;8.60;100.00
75933;BME280;64803;52.356;5.310;2023-02-21T05:53:48;102284.94;;;8.45;100.00
75933;BME280;64803;52.356;5.310;2023-02-21T05:56:15;102315.88;;;8.58;100.00
75933;BME280;64803;52.356;5.310;2023-02-21T05:58:41;102297.53;;;8.54;100.00
75933;BME280;64803;52.356;5.310;2023-02-21T06:01:08;102303.84;;;8.53;100.00
75933;BME280;64803;52.356;5.310;2023-02-21T06:03:34;102266.09;;;8.35;100.00
75933;BME280;64803;52.356;5.310;2023-02-21T06:06:01;102302.91;;;8.54;100.00
75933;BME280;64803;52.356;5.310;2023-02-21T06:08:27;102302.63;;;8.57;100.00
75933;BME280;64803;52.356;5.310;2023-02-21T06:10:53;102267.69;;;8.38;100.00
75933;BME280;64803;52.356;5.310;2023-02-21T06:13:19;102299.69;;;8.60;100.00
75933;BME280;64803;52.356;5.310;2023-02-21T06:15:45;102298.97;;;8.58;100.00
75933;BME280;64803;52.356;5.310;2023-02-21T06:18:13;102300.69;;;8.59;100.00
75933;BME280;64803;52.356;5.310;2023-02-21T06:20:39;102290.22;;;8.56;100.00
75933;BME280;64803;52.356;5.310;2023-02-21T06:23:05;102285.13;;;8.53;100.00
75933;BME280;64803;52.356;5.310;2023-02-21T06:25:31;102295.19;;;8.60;100.00
75933;BME280;64803;52.356;5.310;2023-02-21T06:27:57;102298.00;;;8.59;100.00
75933;BME280;64803;52.356;5.310;2023-02-21T06:30:24;102302.03;;;8.53;100.00
75933;BME280;64803;52.356;5.310;2023-02-21T06:32:50;102300.34;;;8.52;100.00
75933;BME280;64803;52.356;5.310;2023-02-21T06:35:16;102308.38;;;8.52;100.00
75933;BME280;64803;52.356;5.310;2023-02-21T06:37:42;102295.22;;;8.49;100.00
75933;BME280;64803;52.356;5.310;2023-02-21T06:40:08;102302.91;;;8.54;100.00
75933;BME280;64803;52.356;5.310;2023-02-21T06:42:34;102309.06;;;8.54;100.00
75933;BME280;64803;52.356;5.310;2023-02-21T06:45:01;102313.59;;;8.54;100.00
75933;BME280;64803;52.356;5.310;2023-02-21T06:47:28;102314.06;;;8.59;100.00
75933;BME280;64803;52.356;5.310;2023-02-21T06:49:54;102309.06;;;8.54;100.00
75933;BME280;64803;52.356;5.310;2023-02-21T06:52:20;102304.84;;;8.52;100.00
75933;BME280;64803;52.356;5.310;2023-02-21T06:54:49;102308.47;;;8.51;100.00
75933;BME280;64803;52.356;5.310;2023-02-21T06:57:15;102300.59;;;8.49;100.00
75933;BME280;64803;52.356;5.310;2023-02-21T06:59:41;102308.47;;;8.51;100.00
75933;BME280;64803;52.356;5.310;2023-02-21T07:02:14;102291.50;;;8.41;100.00
75933;BME280;64803;52.356;5.310;2023-02-21T07:04:44;102300.00;;;8.46;100.00
75933;BME280;64803;52.356;5.310;2023-02-21T07:07:10;102300.47;;;8.51;100.00
75933;BME280;64803;52.356;5.310;2023-02-21T07:09:36;102301.31;;;8.51;100.00
75933;BME280;64803;52.356;5.310;2023-02-21T07:12:02;102292.97;;;8.45;100.00
75933;BME280;64803;52.356;5.310;2023-02-21T07:14:28;102300.34;;;8.52;100.00
75933;BME280;64803;52.356;5.310;2023-02-21T07:16:54;102293.81;;;8.45;100.00
75933;BME280;64803;52.356;5.310;2023-02-21T07:19:20;102300.34;;;8.52;100.00
75933;BME280;64803;52.356;5.310;2023-02-21T07:21:47;102299.50;;;8.52;100.00
75933;BME280;64803;52.356;5.310;2023-02-21T07:24:13;102304.84;;;8.52;100.00
75933;BME280;64803;52.356;5.310;2023-02-21T07:26:39;102301.44;;;8.50;100.00
75933;BME280;64803;52.356;5.310;2023-02-21T07:29:05;102308.47;;;8.51;100.00
75933;BME280;64803;52.356;5.310;2023-02-21T07:31:31;102310.19;;;8.52;100.00
75933;BME280;64803;52.356;5.310;2023-02-21T07:33:58;102313.84;;;8.51;100.00
75933;BME280;64803;52.356;5.310;2023-02-21T07:36:24;102310.19;;;8.52;100.00
75933;BME280;64803;52.356;5.310;2023-02-21T07:38:50;102312.16;;;8.50;100.00
75933;BME280;64803;52.356;5.310;2023-02-21T07:41:16;102313.84;;;8.51;100.00
75933;BME280;64803;52.356;5.310;2023-02-21T07:43:42;102320.06;;;8.51;100.00
75933;BME280;64803;52.356;5.310;2023-02-21T07:46:13;102312.16;;;8.50;100.00
75933;BME280;64803;52.356;5.310;2023-02-21T07:48:39;102314.25;;;8.46;100.00
75933;BME280;64803;52.356;5.310;2023-02-21T07:51:06;102315.81;;;8.49;100.00
75933;BME280;64803;52.356;5.310;2023-02-21T07:53:33;102312.16;;;8.50;100.00
75933;BME280;64803;52.356;5.310;2023-02-21T07:55:59;102320.31;;;8.48;100.00
75933;BME280;64803;52.356;5.310;2023-02-21T07:58:25;102309.88;;;8.45;100.00
75933;BME280;64803;52.356;5.310;2023-02-21T08:00:51;102322.59;;;8.53;100.00
75933;BME280;64803;52.356;5.310;2023-02-21T08:03:17;102315.56;;;8.52;100.00
75933;BME280;64803;52.356;5.310;2023-02-21T08:05:43;102326.25;;;8.52;100.00
75933;BME280;64803;52.356;5.310;2023-02-21T08:08:10;102330.50;;;8.54;100.00
75933;BME280;64803;52.356;5.310;2023-02-21T08:10:36;102322.94;;;8.59;100.00
75933;BME280;64803;52.356;5.310;2023-02-21T08:13:03;102331.69;;;8.61;100.00
75933;BME280;64803;52.356;5.310;2023-02-21T08:15:29;102327.19;;;8.62;100.00
75933;BME280;64803;52.356;5.310;2023-02-21T08:17:55;102325.97;;;8.66;100.00
75933;BME280;64803;52.356;5.310;2023-02-21T08:20:21;102319.38;;;8.70;100.00
75933;BME280;64803;52.356;5.310;2023-02-21T08:22:47;102323.47;;;8.74;100.00
75933;BME280;64803;52.356;5.310;2023-02-21T08:25:14;102297.00;;;8.60;100.00
75933;BME280;64803;52.356;5.310;2023-02-21T08:27:41;102324.66;;;8.81;100.00
75933;BME280;64803;52.356;5.310;2023-02-21T08:30:10;102319.16;;;8.82;100.00
75933;BME280;64803;52.356;5.310;2023-02-21T08:32:40;102307.84;;;8.79;100.00
75933;BME280;64803;52.356;5.310;2023-02-21T08:35:06;102310.16;;;8.83;100.00
75933;BME280;64803;52.356;5.310;2023-02-21T08:37:33;102318.31;;;8.82;100.00
75933;BME280;64803;52.356;5.310;2023-02-21T08:40:02;102321.47;;;8.87;100.00
75933;BME280;64803;52.356;5.310;2023-02-21T08:42:28;102319.38;;;8.90;100.00
75933;BME280;64803;52.356;5.310;2023-02-21T08:44:55;102322.63;;;8.94;100.00
75933;BME280;64803;52.356;5.310;2023-02-21T08:47:22;102305.38;;;8.87;100.00
75933;BME280;64803;52.356;5.310;2023-02-21T08:49:48;102317.28;;;8.94;100.00
75933;BME280;64803;52.356;5.310;2023-02-21T08:52:16;102273.00;;;8.69;100.00
75933;BME280;64803;52.356;5.310;2023-02-21T08:54:43;102313.31;;;8.98;100.00
75933;BME280;64803;52.356;5.310;2023-02-21T08:57:10;102304.59;;;8.96;100.00
75933;BME280;64803;52.356;5.310;2023-02-21T08:59:42;102272.34;;;8.77;100.00
75933;BME280;64803;52.356;5.310;2023-02-21T09:02:18;102293.59;;;8.99;100.00
75933;BME280;64803;52.356;5.310;2023-02-21T09:04:44;102308.03;;;9.07;100.00
75933;BME280;64803;52.356;5.310;2023-02-21T09:07:13;102305.94;;;9.11;100.00
75933;BME280;64803;52.356;5.310;2023-02-21T09:09:39;102307.19;;;9.07;100.00
75933;BME280;64803;52.356;5.310;2023-02-21T09:12:05;102313.53;;;9.06;100.00
75933;BME280;64803;52.356;5.310;2023-02-21T09:14:35;102307.19;;;9.07;100.00
75933;BME280;64803;52.356;5.310;2023-02-21T09:17:03;102295.38;;;9.09;100.00
75933;BME280;64803;52.356;5.310;2023-02-21T09:19:30;102305.22;;;9.09;100.00
75933;BME280;64803;52.356;5.310;2023-02-21T09:21:56;102288.03;;;9.12;100.00
75933;BME280;64803;52.356;5.310;2023-02-21T09:24:23;102300.03;;;9.17;100.00
75933;BME280;64803;52.356;5.310;2023-02-21T09:26:54;102295.66;;;9.16;100.00
75933;BME280;64803;52.356;5.310;2023-02-21T09:29:27;102293.41;;;9.12;100.00
75933;BME280;64803;52.356;5.310;2023-02-21T09:31:53;102287.19;;;9.11;100.00
75933;BME280;64803;52.356;5.310;2023-02-21T09:34:19;102253.81;;;8.94;100.00
75933;BME280;64803;52.356;5.310;2023-02-21T09:36:47;102284.09;;;9.16;100.00
75933;BME280;64803;52.356;5.310;2023-02-21T09:39:14;102278.50;;;9.19;100.00
75933;BME280;64803;52.356;5.310;2023-02-21T09:41:41;102278.59;;;9.17;100.00
75933;BME280;64803;52.356;5.310;2023-02-21T09:44:16;102281.03;;;9.20;100.00
75933;BME280;64803;52.356;5.310;2023-02-21T09:47:05;102273.94;;;9.19;100.00
75933;BME280;64803;52.356;5.310;2023-02-21T09:49:33;102280.22;;;9.29;100.00
75933;BME280;64803;52.356;5.310;2023-02-21T09:52:01;102290.41;;;9.35;100.00
75933;BME280;64803;52.356;5.310;2023-02-21T09:54:32;102281.38;;;9.36;100.00
75933;BME280;64803;52.356;5.310;2023-02-21T09:57:02;102145.59;;;8.46;100.00
75933;BME280;64803;52.356;5.310;2023-02-21T09:59:28;102281.91;;;9.30;100.00
75933;BME280;64803;52.356;5.310;2023-02-21T10:10:06;102268.00;;;9.16;100.00
75933;BME280;64803;52.356;5.310;2023-02-21T10:12:54;102282.63;;;9.32;100.00
75933;BME280;64803;52.356;5.310;2023-02-21T10:15:33;102280.25;;;9.39;100.00
75933;BME280;64803;52.356;5.310;2023-02-21T10:20:38;102260.03;;;9.35;100.00
75933;BME280;64803;52.356;5.310;2023-02-21T10:23:20;102284.63;;;9.40;100.00
75933;BME280;64803;52.356;5.310;2023-02-21T10:25:48;102284.50;;;9.41;100.00
75933;BME280;64803;52.356;5.310;2023-02-21T10:28:22;102274.88;;;9.39;100.00
75933;BME280;64803;52.356;5.310;2023-02-21T10:30:53;102281.53;;;9.44;100.00
75933;BME280;64803;52.356;5.310;2023-02-21T10:33:22;102283.94;;;9.47;100.00
75933;BME280;64803;52.356;5.310;2023-02-21T10:35:47;102284.09;;;9.46;100.00
75933;BME280;64803;52.356;5.310;2023-02-21T10:38:20;102293.44;;;9.51;100.00
75933;BME280;64803;52.356;5.310;2023-02-21T10:40:55;102280.81;;;9.42;100.00
75933;BME280;64803;52.356;5.310;2023-02-21T10:45:57;102294.38;;;9.50;100.00
75933;BME280;64803;52.356;5.310;2023-02-21T10:48:27;102291.03;;;9.58;100.00
75933;BME280;64803;52.356;5.310;2023-02-21T10:53:33;102293.28;;;9.53;100.00
75933;BME280;64803;52.356;5.310;2023-02-21T10:58:59;102289.88;;;9.41;100.00
75933;BME280;64803;52.356;5.310;2023-02-21T11:12:22;102274.66;;;9.51;100.00
75933;BME280;64803;52.356;5.310;2023-02-21T11:17:26;102279.75;;;9.54;100.00
75933;BME280;64803;52.356;5.310;2023-02-21T11:20:19;102286.25;;;9.61;100.00
75933;BME280;64803;52.356;5.310;2023-02-21T11:22:47;102280.06;;;9.70;100.00
75933;BME280;64803;52.356;5.310;2023-02-21T11:25:24;102278.34;;;9.69;100.00
75933;BME280;64803;52.356;5.310;2023-02-21T11:28:18;102278.91;;;9.63;100.00
75933;BME280;64803;52.356;5.310;2023-02-21T11:33:22;102268.16;;;9.54;100.00
75933;BME280;64803;52.356;5.310;2023-02-21T11:35:51;102274.09;;;9.57;100.00
75933;BME280;64803;52.356;5.310;2023-02-21T11:38:36;102275.81;;;9.58;100.00
75933;BME280;64803;52.356;5.310;2023-02-21T11:43:58;102278.06;;;9.63;100.00
75933;BME280;64803;52.356;5.310;2023-02-21T11:46:45;102279.03;;;9.52;100.00
75933;BME280;64803;52.356;5.310;2023-02-21T11:49:24;102270.44;;;9.58;100.00
75933;BME280;64803;52.356;5.310;2023-02-21T11:52:03;102267.31;;;9.53;100.00
75933;BME280;64803;52.356;5.310;2023-02-21T11:54:31;102269.44;;;9.59;100.00
75933;BME280;64803;52.356;5.310;2023-02-21T11:57:06;102263.94;;;9.61;100.00
75933;BME280;64803;52.356;5.310;2023-02-21T12:05:21;102271.88;;;9.62;100.00
75933;BME280;64803;52.356;5.310;2023-02-21T12:11:05;102256.75;;;9.61;100.00
75933;BME280;64803;52.356;5.310;2023-02-21T12:22:02;102257.75;;;9.60;100.00
75933;BME280;64803;52.356;5.310;2023-02-21T12:33:10;102242.47;;;9.51;100.00
75933;BME280;64803;52.356;5.310;2023-02-21T12:36:01;102243.34;;;9.52;100.00
75933;BME280;64803;52.356;5.310;2023-02-21T12:41:42;102240.47;;;9.44;100.00
75933;BME280;64803;52.356;5.310;2023-02-21T12:47:06;102204.03;;;9.22;100.00
75933;BME280;64803;52.356;5.310;2023-02-21T12:49:53;102229.59;;;9.45;100.00
75933;BME280;64803;52.356;5.310;2023-02-21T12:53:11;102228.34;;;9.49;100.00
75933;BME280;64803;52.356;5.310;2023-02-21T12:55:46;102229.03;;;9.42;100.00
75933;BME280;64803;52.356;5.310;2023-02-21T12:58:41;102226.34;;;9.32;100.00
75933;BME280;64803;52.356;5.310;2023-02-21T13:01:17;102223.94;;;9.29;100.00
75933;BME280;64803;52.356;5.310;2023-02-21T13:09:35;102224.03;;;9.28;100.00
75933;BME280;64803;52.356;5.310;2023-02-21T13:12:24;102218.56;;;9.29;100.00
75933;BME280;64803;52.356;5.310;2023-02-21T13:15:04;102218.69;;;9.28;100.00
75933;BME280;64803;52.356;5.310;2023-02-21T13:17:38;102219.00;;;9.34;100.00
75933;BME280;64803;52.356;5.310;2023-02-21T13:20:08;102222.50;;;9.35;100.00
75933;BME280;64803;52.356;5.310;2023-02-21T13:22:53;102222.41;;;9.36;100.00
75933;BME280;64803;52.356;5.310;2023-02-21T13:28:19;102214.03;;;9.20;100.00
75933;BME280;64803;52.356;5.310;2023-02-21T13:30:56;102211.28;;;9.10;100.00
75933;BME280;64803;52.356;5.310;2023-02-21T13:33:43;102210.44;;;9.10;100.00
75933;BME280;64803;52.356;5.310;2023-02-21T13:36:29;102205.94;;;9.10;100.00
75933;BME280;64803;52.356;5.310;2023-02-21T13:41:47;102196.88;;;9.02;100.00
75933;BME280;64803;52.356;5.310;2023-02-21T13:44:23;102194.91;;;9.04;100.00
75933;BME280;64803;52.356;5.310;2023-02-21T13:57:35;102181.09;;;9.08;100.00
75933;BME280;64803;52.356;5.310;2023-02-21T14:19:05;102176.59;;;8.99;100.00
75933;BME280;64803;52.356;5.310;2023-02-21T14:24:18;102180.09;;;9.00;100.00
75933;BME280;64803;52.356;5.310;2023-02-21T14:37:05;102179.66;;;8.95;100.00
75933;BME280;64803;52.356;5.310;2023-02-21T14:39:39;102150.53;;;8.81;100.00
75933;BME280;64803;52.356;5.310;2023-02-21T14:47:56;102140.38;;;8.75;100.00
75933;BME280;64803;52.356;5.310;2023-02-21T14:50:45;102177.25;;;8.92;100.00
75933;BME280;64803;52.356;5.310;2023-02-21T15:02:16;102171.03;;;8.91;100.00
75933;BME280;64803;52.356;5.310;2023-02-21T15:12:51;102158.94;;;8.97;100.00
75933;BME280;64803;52.356;5.310;2023-02-21T15:15:28;102166.97;;;8.97;100.00
75933;BME280;64803;52.356;5.310;2023-02-21T15:18:08;102171.75;;;8.93;100.00
75933;BME280;64803;52.356;5.310;2023-02-21T15:20:39;102163.00;;;8.91;100.00
75933;BME280;64803;52.356;5.310;2023-02-21T15:25:35;102167.50;;;8.91;100.00
75933;BME280;64803;52.356;5.310;2023-02-21T15:28:06;102160.16;;;8.83;100.00
75933;BME280;64803;52.356;5.310;2023-02-21T15:30:38;102162.84;;;8.83;100.00
75933;BME280;64803;52.356;5.310;2023-02-21T15:33:19;102166.63;;;8.81;100.00
75933;BME280;64803;52.356;5.310;2023-02-21T15:38:22;102162.78;;;8.74;100.00
75933;BME280;64803;52.356;5.310;2023-02-21T15:40:53;102155.03;;;8.71;100.00
75933;BME280;64803;52.356;5.310;2023-02-21T15:43:36;102155.75;;;8.73;100.00
75933;BME280;64803;52.356;5.310;2023-02-21T15:46:07;102158.41;;;8.73;100.00
75933;BME280;64803;52.356;5.310;2023-02-21T15:48:35;102164.72;;;8.72;100.00
75933;BME280;64803;52.356;5.310;2023-02-21T15:51:03;102153.34;;;8.70;100.00
75933;BME280;64803;52.356;5.310;2023-02-21T15:53:31;102154.31;;;8.69;100.00
75933;BME280;64803;52.356;5.310;2023-02-21T15:56:18;102153.59;;;8.67;100.00
75933;BME280;64803;52.356;5.310;2023-02-21T15:59:19;102159.78;;;8.67;100.00
75933;BME280;64803;52.356;5.310;2023-02-21T16:04:45;102160.06;;;8.64;100.00
75933;BME280;64803;52.356;5.310;2023-02-21T16:07:33;102146.25;;;8.59;100.00
75933;BME280;64803;52.356;5.310;2023-02-21T16:10:03;102127.84;;;8.45;100.00
75933;BME280;64803;52.356;5.310;2023-02-21T16:12:34;102156.09;;;8.59;100.00
75933;BME280;64803;52.356;5.310;2023-02-21T16:15:23;102151.00;;;8.56;100.00
75933;BME280;64803;52.356;5.310;2023-02-21T16:18:17;102149.56;;;8.52;100.00
75933;BME280;64803;52.356;5.310;2023-02-21T16:20:42;102148.84;;;8.50;100.00
75933;BME280;64803;52.356;5.310;2023-02-21T16:23:40;102142.78;;;8.48;100.00
75933;BME280;64803;52.356;5.310;2023-02-21T16:28:43;102141.69;;;8.50;100.00
75933;BME280;64803;52.356;5.310;2023-02-21T16:31:15;102140.81;;;8.50;100.00